45NY weather

Turning Stone Resort & Casino Heliport
Verona, New York, United States

Public forecast

Using degrees Fahrenheit for public forecast. Weather courtesy of forecast.io.

Closest aviation weather report (METAR) to Turning Stone Resort & Casino Heliport

Closest report is Griffiss International Airport, 11.0 nm (20.4 km) NE. Retrieved 2019/12/10 07:53 UTC (16 minutes ago):

KRME 100753Z AUTO 07006KT 10SM OVC060 08/08 A2958 RMK AO2 RAE45 SLP019 P0004 T00780078

Closest aviation forecast (TAF) to Turning Stone Resort & Casino Heliport

Closest forecast is Griffiss International Airport, 11.0 nm (20.4 km) NE. Retrieved 2019/12/10 09:54 UTC (0 seconds ago):

TAF KRME 100850Z 1009/1106 18006KT 6SM -RA BR OVC035 WS020/23040KT TEMPO 1009/1012 4SM -SHRA OVC025 FM101200 23006KT 6SM -SHRA OVC012 FM101700 27012G20KT P6SM -RASN OVC025 FM102200 28010KT P6SM -SHSN OVC025 FM110300 VRB02KT P6SM -SHSN OVC035